sensor_id;sensor_type;location;lat;lon;timestamp;temperature;humidity
71879;DHT22;59755;43.834;4.364;2022-08-01T00:00:11;29.10;35.20
71879;DHT22;59755;43.834;4.364;2022-08-01T00:02:37;29.00;35.40
71879;DHT22;59755;43.834;4.364;2022-08-01T00:05:05;29.00;35.40
71879;DHT22;59755;43.834;4.364;2022-08-01T00:07:32;28.90;35.50
71879;DHT22;59755;43.834;4.364;2022-08-01T00:09:58;28.80;35.70
71879;DHT22;59755;43.834;4.364;2022-08-01T00:12:23;28.70;35.90
71879;DHT22;59755;43.834;4.364;2022-08-01T00:14:49;28.80;35.80
71879;DHT22;59755;43.834;4.364;2022-08-01T00:17:15;28.80;35.70
71879;DHT22;59755;43.834;4.364;2022-08-01T00:19:41;28.70;35.90
71879;DHT22;59755;43.834;4.364;2022-08-01T00:22:07;28.70;35.80
71879;DHT22;59755;43.834;4.364;2022-08-01T00:24:32;28.70;35.90
71879;DHT22;59755;43.834;4.364;2022-08-01T00:26:58;28.60;36.00
71879;DHT22;59755;43.834;4.364;2022-08-01T00:29:24;28.60;36.00
71879;DHT22;59755;43.834;4.364;2022-08-01T00:31:49;28.60;36.10
71879;DHT22;59755;43.834;4.364;2022-08-01T00:34:15;28.60;36.00
71879;DHT22;59755;43.834;4.364;2022-08-01T00:36:41;28.50;36.10
71879;DHT22;59755;43.834;4.364;2022-08-01T00:39:07;28.50;36.10
71879;DHT22;59755;43.834;4.364;2022-08-01T00:41:32;28.50;36.10
71879;DHT22;59755;43.834;4.364;2022-08-01T00:44:01;28.50;36.20
71879;DHT22;59755;43.834;4.364;2022-08-01T00:46:27;28.40;36.30
71879;DHT22;59755;43.834;4.364;2022-08-01T00:48:52;28.40;36.40
71879;DHT22;59755;43.834;4.364;2022-08-01T00:51:20;28.40;36.40
71879;DHT22;59755;43.834;4.364;2022-08-01T00:53:46;28.40;36.20
71879;DHT22;59755;43.834;4.364;2022-08-01T00:56:12;28.40;36.30
71879;DHT22;59755;43.834;4.364;2022-08-01T00:58:38;28.40;36.40
71879;DHT22;59755;43.834;4.364;2022-08-01T01:01:04;28.30;36.40
71879;DHT22;59755;43.834;4.364;2022-08-01T01:03:29;28.30;36.50
71879;DHT22;59755;43.834;4.364;2022-08-01T01:06:31;28.20;36.60
71879;DHT22;59755;43.834;4.364;2022-08-01T01:09:05;28.20;36.70
71879;DHT22;59755;43.834;4.364;2022-08-01T01:11:48;28.20;36.50
71879;DHT22;59755;43.834;4.364;2022-08-01T01:17:23;28.10;36.80
71879;DHT22;59755;43.834;4.364;2022-08-01T01:19:54;28.00;36.90
71879;DHT22;59755;43.834;4.364;2022-08-01T01:27:50;27.90;37.10
71879;DHT22;59755;43.834;4.364;2022-08-01T18:52:26;34.20;27.50
71879;DHT22;59755;43.834;4.364;2022-08-01T18:54:52;34.20;27.50
71879;DHT22;59755;43.834;4.364;2022-08-01T18:57:19;34.10;27.70
71879;DHT22;59755;43.834;4.364;2022-08-01T18:59:45;34.00;27.80
71879;DHT22;59755;43.834;4.364;2022-08-01T19:02:10;33.90;27.90
71879;DHT22;59755;43.834;4.364;2022-08-01T19:04:36;33.80;27.90
71879;DHT22;59755;43.834;4.364;2022-08-01T19:07:02;33.80;28.20
71879;DHT22;59755;43.834;4.364;2022-08-01T19:09:28;33.80;28.10
71879;DHT22;59755;43.834;4.364;2022-08-01T19:11:53;33.70;28.00
71879;DHT22;59755;43.834;4.364;2022-08-01T19:14:19;33.70;27.50
71879;DHT22;59755;43.834;4.364;2022-08-01T19:16:45;33.80;26.20
71879;DHT22;59755;43.834;4.364;2022-08-01T19:19:11;33.80;26.30
71879;DHT22;59755;43.834;4.364;2022-08-01T19:21:37;33.90;26.00
71879;DHT22;59755;43.834;4.364;2022-08-01T19:24:04;33.80;25.50
71879;DHT22;59755;43.834;4.364;2022-08-01T19:26:48;33.80;25.30
71879;DHT22;59755;43.834;4.364;2022-08-01T19:29:22;33.90;25.10
71879;DHT22;59755;43.834;4.364;2022-08-01T19:31:49;33.90;25.10
71879;DHT22;59755;43.834;4.364;2022-08-01T19:34:18;33.90;24.80
71879;DHT22;59755;43.834;4.364;2022-08-01T19:36:46;33.90;25.00
71879;DHT22;59755;43.834;4.364;2022-08-01T19:39:16;33.80;25.10
71879;DHT22;59755;43.834;4.364;2022-08-01T19:41:46;33.80;25.30
71879;DHT22;59755;43.834;4.364;2022-08-01T19:44:14;33.70;25.40
71879;DHT22;59755;43.834;4.364;2022-08-01T19:46:41;33.60;25.60
71879;DHT22;59755;43.834;4.364;2022-08-01T19:49:10;33.60;25.50
71879;DHT22;59755;43.834;4.364;2022-08-01T19:51:49;33.50;25.50
71879;DHT22;59755;43.834;4.364;2022-08-01T19:54:18;33.50;25.60
71879;DHT22;59755;43.834;4.364;2022-08-01T19:56:46;33.50;25.70
71879;DHT22;59755;43.834;4.364;2022-08-01T19:59:17;33.50;25.80
71879;DHT22;59755;43.834;4.364;2022-08-01T20:01:44;33.50;25.90
71879;DHT22;59755;43.834;4.364;2022-08-01T20:04:10;33.50;26.00
71879;DHT22;59755;43.834;4.364;2022-08-01T20:06:36;33.40;26.00
71879;DHT22;59755;43.834;4.364;2022-08-01T20:09:03;33.40;26.20
71879;DHT22;59755;43.834;4.364;2022-08-01T20:11:29;33.40;26.40
71879;DHT22;59755;43.834;4.364;2022-08-01T20:13:55;33.30;26.50
71879;DHT22;59755;43.834;4.364;2022-08-01T20:16:23;33.30;26.50
71879;DHT22;59755;43.834;4.364;2022-08-01T20:18:49;33.20;26.60
71879;DHT22;59755;43.834;4.364;2022-08-01T20:21:16;33.20;26.80
71879;DHT22;59755;43.834;4.364;2022-08-01T20:23:43;33.10;27.00
71879;DHT22;59755;43.834;4.364;2022-08-01T20:26:09;33.00;27.10
71879;DHT22;59755;43.834;4.364;2022-08-01T20:28:38;33.00;27.30
71879;DHT22;59755;43.834;4.364;2022-08-01T20:31:07;33.00;27.40
71879;DHT22;59755;43.834;4.364;2022-08-01T20:33:38;32.90;27.40
71879;DHT22;59755;43.834;4.364;2022-08-01T20:36:05;32.80;27.60
71879;DHT22;59755;43.834;4.364;2022-08-01T20:38:32;32.80;27.70
71879;DHT22;59755;43.834;4.364;2022-08-01T20:41:02;32.80;27.80
71879;DHT22;59755;43.834;4.364;2022-08-01T20:43:28;32.80;28.00
71879;DHT22;59755;43.834;4.364;2022-08-01T20:45:55;32.80;28.10
71879;DHT22;59755;43.834;4.364;2022-08-01T20:48:21;32.70;28.20
71879;DHT22;59755;43.834;4.364;2022-08-01T20:50:48;32.70;28.40
71879;DHT22;59755;43.834;4.364;2022-08-01T20:53:35;32.70;28.50
71879;DHT22;59755;43.834;4.364;2022-08-01T20:58:54;32.60;28.80
71879;DHT22;59755;43.834;4.364;2022-08-01T21:07:22;32.50;29.20
71879;DHT22;59755;43.834;4.364;2022-08-01T21:09:53;32.50;29.30
71879;DHT22;59755;43.834;4.364;2022-08-01T21:12:24;32.40;29.40
71879;DHT22;59755;43.834;4.364;2022-08-01T21:14:54;32.40;29.60
71879;DHT22;59755;43.834;4.364;2022-08-01T21:17:45;32.30;29.60
71879;DHT22;59755;43.834;4.364;2022-08-01T21:20:12;32.30;29.70
71879;DHT22;59755;43.834;4.364;2022-08-01T21:23:10;32.30;29.70
71879;DHT22;59755;43.834;4.364;2022-08-01T21:25:40;32.20;29.90
71879;DHT22;59755;43.834;4.364;2022-08-01T21:28:06;32.20;30.00
71879;DHT22;59755;43.834;4.364;2022-08-01T21:30:34;32.20;30.00
71879;DHT22;59755;43.834;4.364;2022-08-01T21:33:03;32.20;30.00
71879;DHT22;59755;43.834;4.364;2022-08-01T21:35:29;32.10;30.00
71879;DHT22;59755;43.834;4.364;2022-08-01T21:37:56;32.10;30.10
71879;DHT22;59755;43.834;4.364;2022-08-01T21:40:24;32.00;30.20
71879;DHT22;59755;43.834;4.364;2022-08-01T21:42:51;32.00;30.30
71879;DHT22;59755;43.834;4.364;2022-08-01T21:45:24;32.00;30.20
71879;DHT22;59755;43.834;4.364;2022-08-01T21:47:51;31.90;30.30
71879;DHT22;59755;43.834;4.364;2022-08-01T21:50:18;31.90;30.50
71879;DHT22;59755;43.834;4.364;2022-08-01T21:53:21;31.80;30.50
71879;DHT22;59755;43.834;4.364;2022-08-01T21:56:06;31.70;30.70
71879;DHT22;59755;43.834;4.364;2022-08-01T21:58:33;31.70;30.70
71879;DHT22;59755;43.834;4.364;2022-08-01T22:01:12;31.70;30.70
71879;DHT22;59755;43.834;4.364;2022-08-01T22:03:47;31.70;30.80
71879;DHT22;59755;43.834;4.364;2022-08-01T22:06:18;31.60;30.80
71879;DHT22;59755;43.834;4.364;2022-08-01T22:08:53;31.60;30.80
71879;DHT22;59755;43.834;4.364;2022-08-01T22:11:28;31.50;30.90
71879;DHT22;59755;43.834;4.364;2022-08-01T22:13:57;31.50;30.80
71879;DHT22;59755;43.834;4.364;2022-08-01T22:16:25;31.50;30.80
71879;DHT22;59755;43.834;4.364;2022-08-01T22:18:52;31.40;30.90
71879;DHT22;59755;43.834;4.364;2022-08-01T22:21:19;31.40;30.90
71879;DHT22;59755;43.834;4.364;2022-08-01T22:23:45;31.30;30.90
71879;DHT22;59755;43.834;4.364;2022-08-01T22:26:12;31.30;30.90
71879;DHT22;59755;43.834;4.364;2022-08-01T22:28:38;31.30;31.00
71879;DHT22;59755;43.834;4.364;2022-08-01T22:31:05;31.20;31.00
71879;DHT22;59755;43.834;4.364;2022-08-01T22:33:36;31.20;31.10
71879;DHT22;59755;43.834;4.364;2022-08-01T22:36:04;31.20;31.00
71879;DHT22;59755;43.834;4.364;2022-08-01T22:38:30;31.20;31.10
71879;DHT22;59755;43.834;4.364;2022-08-01T22:41:08;31.20;31.10
71879;DHT22;59755;43.834;4.364;2022-08-01T22:43:54;31.10;31.10
71879;DHT22;59755;43.834;4.364;2022-08-01T22:46:27;31.00;31.20
71879;DHT22;59755;43.834;4.364;2022-08-01T22:48:59;31.00;31.30
71879;DHT22;59755;43.834;4.364;2022-08-01T22:51:48;31.00;31.20
71879;DHT22;59755;43.834;4.364;2022-08-01T22:54:22;31.00;31.30
71879;DHT22;59755;43.834;4.364;2022-08-01T22:56:55;30.90;31.30
71879;DHT22;59755;43.834;4.364;2022-08-01T22:59:45;30.80;31.40
71879;DHT22;59755;43.834;4.364;2022-08-01T23:02:14;30.80;31.40
71879;DHT22;59755;43.834;4.364;2022-08-01T23:04:46;30.80;31.50
71879;DHT22;59755;43.834;4.364;2022-08-01T23:07:19;30.70;31.50
71879;DHT22;59755;43.834;4.364;2022-08-01T23:09:45;30.70;31.50
71879;DHT22;59755;43.834;4.364;2022-08-01T23:12:13;30.60;31.60
71879;DHT22;59755;43.834;4.364;2022-08-01T23:14:39;30.60;31.60
71879;DHT22;59755;43.834;4.364;2022-08-01T23:17:07;30.60;31.60
71879;DHT22;59755;43.834;4.364;2022-08-01T23:19:35;30.60;31.60
71879;DHT22;59755;43.834;4.364;2022-08-01T23:22:03;30.60;31.70
71879;DHT22;59755;43.834;4.364;2022-08-01T23:24:29;30.60;31.70
71879;DHT22;59755;43.834;4.364;2022-08-01T23:26:57;30.50;31.80
71879;DHT22;59755;43.834;4.364;2022-08-01T23:29:41;30.50;31.80
71879;DHT22;59755;43.834;4.364;2022-08-01T23:32:07;30.50;31.80
71879;DHT22;59755;43.834;4.364;2022-08-01T23:34:32;30.40;32.00
71879;DHT22;59755;43.834;4.364;2022-08-01T23:36:58;30.40;32.00
71879;DHT22;59755;43.834;4.364;2022-08-01T23:39:24;30.40;32.00
71879;DHT22;59755;43.834;4.364;2022-08-01T23:41:49;30.30;32.20
71879;DHT22;59755;43.834;4.364;2022-08-01T23:44:15;30.30;32.20
71879;DHT22;59755;43.834;4.364;2022-08-01T23:46:41;30.20;32.20
71879;DHT22;59755;43.834;4.364;2022-08-01T23:49:06;30.20;32.20
71879;DHT22;59755;43.834;4.364;2022-08-01T23:51:32;30.10;32.30
71879;DHT22;59755;43.834;4.364;2022-08-01T23:53:58;30.10;32.50
71879;DHT22;59755;43.834;4.364;2022-08-01T23:56:24;30.10;32.50
71879;DHT22;59755;43.834;4.364;2022-08-01T23:58:50;30.10;32.50
